Time;durP1;ratioP1;P1;durP2;ratioP2;P2;SDS_P1;SDS_P2;PMS_P1;PMS_P2;Temp;Humidity;BMP_temperature;BMP_pressure;BME280_temperature;BME280_humidity;BME280_pressure;Samples;Min_cycle;Max_cycle;Signal;HPM_P1;HPM_P2
2022/04/01 00:02:20;;;;;;;12.50;10.13;;;;;;;;;;4931588;29;20140;-62
2022/04/01 00:04:46;;;;;;;14.00;9.25;;;;;;;;;;4930318;29;20039;-62
2022/04/01 00:07:12;;;;;;;12.68;9.93;;;;;;;;;;4932558;29;20027;-61
2022/04/01 00:09:37;;;;;;;11.25;8.82;;;;;;;;;;4933663;29;20043;-61
2022/04/01 00:12:07;;;;;;;12.93;9.05;;;;;;;;;;4931235;29;20047;-61
2022/04/01 00:14:32;;;;;;;10.60;9.00;;;;;;;;;;4930101;29;20027;-61
2022/04/01 00:16:58;;;;;;;14.77;9.65;;;;;;;;;;4929864;29;20031;-58
2022/04/01 00:19:24;;;;;;;11.48;9.27;;;;;;;;;;4933544;28;20482;-62
2022/04/01 00:21:50;;;;;;;12.00;9.88;;;;;;;;;;4931997;29;20492;-66
2022/04/01 00:24:15;;;;;;;11.85;9.10;;;;;;;;;;4915238;29;20622;-59
2022/04/01 00:26:41;;;;;;;12.32;9.35;;;;;;;;;;4950288;28;20047;-60
2022/04/01 00:29:15;;;;;;;10.48;9.00;;;;;;;;;;4931388;29;20036;-62
2022/04/01 00:31:48;;;;;;;10.88;8.38;;;;;;;;;;4953891;28;20042;-61
2022/04/01 00:34:17;;;;;;;;;;;;;;;;;;4933312;29;20119;-59
2022/04/01 00:36:44;;;;;;;10.95;8.95;;;;;;;;;;4935984;29;20330;-61
2022/04/01 00:39:10;;;;;;;12.07;9.30;;;;;;;;;;4932331;29;20492;-61
2022/04/01 00:41:35;;;;;;;12.43;8.63;;;;;;;;;;4933003;29;20547;-62
2022/04/01 00:44:19;;;;;;;12.50;9.07;;;;;;;;;;4934395;29;20023;-61
2022/04/01 00:46:47;;;;;;;12.50;9.13;;;;;;;;;;4934608;29;20505;-59
2022/04/01 00:49:13;;;;;;;12.70;9.20;;;;;;;;;;4933227;28;20023;-61
2022/04/01 00:51:42;;;;;;;12.43;9.50;;;;;;;;;;4932033;28;20034;-62
2022/04/01 00:54:08;;;;;;;12.73;9.73;;;;;;;;;;4930078;29;20480;-61
2022/04/01 00:56:34;;;;;;;11.95;9.40;;;;;;;;;;4932448;29;20043;-60
2022/04/01 00:59:01;;;;;;;12.63;9.73;;;;;;;;;;4933293;29;20111;-60
2022/04/01 01:01:27;;;;;;;11.93;9.63;;;;;;;;;;4935958;29;20070;-61
2022/04/01 01:03:52;;;;;;;12.27;9.32;;;;;;;;;;4931837;29;20059;-66
2022/04/01 01:06:21;;;;;;;11.48;9.45;;;;;;;;;;4931154;29;20045;-60
2022/04/01 01:08:48;;;;;;;12.20;9.57;;;;;;;;;;4954963;28;20573;-61
2022/04/01 01:11:14;;;;;;;12.93;10.40;;;;;;;;;;4956287;28;20032;-62
2022/04/01 01:13:40;;;;;;;13.00;9.98;;;;;;;;;;4932913;29;20038;-60
2022/04/01 01:16:07;;;;;;;11.27;8.77;;;;;;;;;;4933454;29;20491;-59
2022/04/01 01:18:35;;;;;;;11.40;9.13;;;;;;;;;;4935352;28;20028;-62
2022/04/01 01:21:01;;;;;;;12.50;9.00;;;;;;;;;;4933816;29;20083;-61
2022/04/01 01:23:29;;;;;;;11.35;8.43;;;;;;;;;;4931453;29;20123;-61
2022/04/01 01:25:54;;;;;;;11.18;9.30;;;;;;;;;;4930759;29;20046;-60
2022/04/01 01:28:21;;;;;;;11.52;8.35;;;;;;;;;;4933317;29;20027;-60
2022/04/01 01:30:47;;;;;;;10.88;9.02;;;;;;;;;;4932948;29;20032;-62
2022/04/01 01:33:12;;;;;;;11.55;8.68;;;;;;;;;;4930504;29;20020;-61
2022/04/01 01:35:37;;;;;;;11.32;9.48;;;;;;;;;;4930044;29;20035;-61
2022/04/01 01:38:04;;;;;;;11.30;9.07;;;;;;;;;;4930291;29;20451;-61
2022/04/01 01:40:30;;;;;;;12.02;8.63;;;;;;;;;;4931063;29;20146;-61
2022/04/01 01:42:55;;;;;;;11.43;8.77;;;;;;;;;;4932180;29;20175;-60
2022/04/01 01:45:21;;;;;;;11.75;8.45;;;;;;;;;;4931535;29;20038;-61
2022/04/01 01:47:46;;;;;;;11.63;9.45;;;;;;;;;;4932793;29;20431;-60
2022/04/01 01:55:40;;;;;;;12.23;8.75;;;;;;;;;;4929159;29;20043;-63
2022/04/01 01:58:05;;;;;;;11.88;9.20;;;;;;;;;;4932833;29;20031;-60
2022/04/01 02:00:31;;;;;;;11.07;8.38;;;;;;;;;;4929033;29;20031;-65
2022/04/01 02:02:57;;;;;;;11.13;8.23;;;;;;;;;;4935151;29;20058;-60
2022/04/01 02:05:22;;;;;;;10.27;8.30;;;;;;;;;;4934918;29;20483;-63
2022/04/01 02:07:47;;;;;;;10.77;8.30;;;;;;;;;;4936406;29;20051;-64
2022/04/01 02:10:15;;;;;;;10.75;8.57;;;;;;;;;;4936528;29;20471;-61
2022/04/01 02:12:42;;;;;;;11.10;8.20;;;;;;;;;;4939119;29;20032;-61
2022/04/01 02:15:10;;;;;;;12.73;8.90;;;;;;;;;;4937519;29;20106;-62
2022/04/01 02:17:40;;;;;;;10.43;8.38;;;;;;;;;;4935107;29;20109;-60
2022/04/01 02:20:09;;;;;;;10.65;7.97;;;;;;;;;;4931291;29;20023;-64
2022/04/01 02:22:36;;;;;;;10.40;8.05;;;;;;;;;;4935990;29;20103;-63
2022/04/01 02:25:03;;;;;;;9.98;7.78;;;;;;;;;;4934109;29;20399;-62
2022/04/01 02:27:29;;;;;;;10.23;8.05;;;;;;;;;;4936272;29;20032;-62
2022/04/01 02:29:54;;;;;;;10.15;7.93;;;;;;;;;;4937169;29;20036;-62
2022/04/01 02:32:20;;;;;;;10.88;8.23;;;;;;;;;;4933567;29;20035;-62
2022/04/01 02:34:47;;;;;;;10.50;8.90;;;;;;;;;;4935065;29;20113;-62
2022/04/01 02:37:12;;;;;;;12.77;8.35;;;;;;;;;;4935139;29;20915;-62
2022/04/01 02:39:38;;;;;;;12.23;8.52;;;;;;;;;;4934085;29;20031;-60
2022/04/01 02:42:03;;;;;;;11.68;8.27;;;;;;;;;;4936580;29;20032;-60
2022/04/01 02:44:29;;;;;;;10.93;8.40;;;;;;;;;;4935694;29;20083;-61
2022/04/01 02:46:54;;;;;;;9.77;7.93;;;;;;;;;;4935019;29;20459;-61
2022/04/01 02:49:20;;;;;;;10.75;8.65;;;;;;;;;;4934250;29;20888;-59
2022/04/01 02:51:46;;;;;;;10.38;8.40;;;;;;;;;;4933106;29;20028;-61
2022/04/01 02:54:12;;;;;;;10.90;8.38;;;;;;;;;;4933049;29;20379;-70
2022/04/01 02:56:39;;;;;;;10.25;8.15;;;;;;;;;;4935077;29;20525;-63
2022/04/01 02:59:09;;;;;;;11.85;8.40;;;;;;;;;;4931945;29;20479;-55
2022/04/01 03:01:38;;;;;;;10.82;8.38;;;;;;;;;;4930709;29;20027;-61
2022/04/01 03:04:09;;;;;;;10.75;8.23;;;;;;;;;;4930728;29;20024;-64
2022/04/01 03:06:38;;;;;;;11.68;8.77;;;;;;;;;;4933854;29;20424;-63
2022/04/01 03:09:04;;;;;;;10.07;7.93;;;;;;;;;;4930902;29;20905;-63
2022/04/01 03:11:31;;;;;;;11.40;8.27;;;;;;;;;;4929679;29;20031;-64
2022/04/01 03:13:57;;;;;;;11.27;8.38;;;;;;;;;;4930600;29;20026;-63
2022/04/01 03:16:23;;;;;;;10.98;7.90;;;;;;;;;;4930980;29;20094;-63
2022/04/01 03:18:48;;;;;;;10.45;8.18;;;;;;;;;;4932129;29;20035;-64
2022/04/01 03:21:14;;;;;;;9.90;8.27;;;;;;;;;;4929976;29;20043;-62
2022/04/01 03:23:41;;;;;;;10.60;8.30;;;;;;;;;;4930489;29;20249;-61
2022/04/01 03:26:07;;;;;;;10.63;7.93;;;;;;;;;;4932135;29;20028;-69
2022/04/01 03:28:34;;;;;;;11.65;8.05;;;;;;;;;;4932709;29;20393;-61
2022/04/01 03:31:04;;;;;;;9.85;8.05;;;;;;;;;;4934141;29;20031;-63
2022/04/01 03:33:31;;;;;;;9.65;8.02;;;;;;;;;;4930027;29;20055;-63
2022/04/01 03:35:57;;;;;;;10.55;7.38;;;;;;;;;;4931726;29;20043;-64
2022/04/01 03:38:22;;;;;;;9.48;7.45;;;;;;;;;;4930205;29;20031;-62
2022/04/01 03:40:51;;;;;;;9.63;7.75;;;;;;;;;;4933218;29;20083;-62
2022/04/01 03:43:17;;;;;;;10.35;7.72;;;;;;;;;;4931462;29;20036;-61
2022/04/01 03:45:48;;;;;;;9.70;7.47;;;;;;;;;;4932084;29;20032;-61
2022/04/01 03:48:55;;;;;;;11.32;7.80;;;;;;;;;;4931262;29;20043;-61
2022/04/01 03:51:24;;;;;;;10.18;7.78;;;;;;;;;;4933779;29;20106;-62
2022/04/01 03:53:58;;;;;;;9.30;7.13;;;;;;;;;;4933801;29;20045;-63
2022/04/01 03:56:29;;;;;;;;;;;;;;;;;;4931835;29;20039;-61
2022/04/01 03:59:01;;;;;;;8.20;6.45;;;;;;;;;;4952782;28;19926;-62
2022/04/01 04:01:27;;;;;;;9.30;7.15;;;;;;;;;;4933830;29;20066;-61
2022/04/01 04:03:55;;;;;;;8.80;6.93;;;;;;;;;;4930844;29;20063;-62
2022/04/01 04:06:24;;;;;;;7.55;6.47;;;;;;;;;;4929448;29;20039;-62
2022/04/01 04:08:57;;;;;;;8.48;6.95;;;;;;;;;;4930876;29;20035;-64
2022/04/01 04:11:28;;;;;;;9.85;7.10;;;;;;;;;;4930052;29;20035;-63
2022/04/01 04:13:58;;;;;;;8.13;6.38;;;;;;;;;;4930189;29;20031;-61
2022/04/01 04:16:29;;;;;;;7.38;6.28;;;;;;;;;;4931428;29;20487;-62
2022/04/01 04:19:28;;;;;;;7.78;6.07;;;;;;;;;;4931926;29;20024;-62
2022/04/01 04:22:09;;;;;;;8.20;6.13;;;;;;;;;;4925798;29;20047;-65
2022/04/01 04:24:54;;;;;;;7.90;6.18;;;;;;;;;;4928052;29;20031;-62
2022/04/01 04:27:27;;;;;;;7.60;5.97;;;;;;;;;;4929208;29;20384;-66
2022/04/01 04:30:05;;;;;;;7.47;5.57;;;;;;;;;;4929864;29;20031;-65
2022/04/01 04:32:56;;;;;;;7.63;5.80;;;;;;;;;;4926698;29;20042;-64
2022/04/01 04:35:22;;;;;;;6.82;5.45;;;;;;;;;;4929186;29;20046;-62
2022/04/01 04:37:51;;;;;;;6.22;5.47;;;;;;;;;;4932107;29;20047;-63
2022/04/01 04:40:18;;;;;;;7.57;5.13;;;;;;;;;;4929065;29;20043;-64
2022/04/01 04:42:45;;;;;;;6.97;5.70;;;;;;;;;;4928952;29;20178;-63
2022/04/01 04:45:18;;;;;;;5.95;5.07;;;;;;;;;;4929045;29;20110;-62
2022/04/01 04:47:45;;;;;;;6.17;4.87;;;;;;;;;;4929973;29;20027;-62
2022/04/01 04:50:11;;;;;;;6.80;5.05;;;;;;;;;;4922199;29;20511;-60
2022/04/01 04:52:39;;;;;;;6.35;5.10;;;;;;;;;;4929861;29;20028;-65
2022/04/01 04:55:11;;;;;;;6.53;5.00;;;;;;;;;;4929028;29;20380;-61
2022/04/01 04:57:38;;;;;;;6.82;5.20;;;;;;;;;;4929569;29;20083;-62
2022/04/01 05:00:05;;;;;;;6.30;4.75;;;;;;;;;;4936646;28;20035;-62
2022/04/01 05:03:10;;;;;;;6.75;4.60;;;;;;;;;;4929379;29;20027;-60
2022/04/01 05:05:37;;;;;;;5.25;4.72;;;;;;;;;;4928581;29;20028;-62
2022/04/01 05:08:28;;;;;;;5.10;4.35;;;;;;;;;;4930157;29;20378;-62
2022/04/01 05:11:16;;;;;;;6.18;4.80;;;;;;;;;;4927763;29;20090;-61
2022/04/01 05:13:48;;;;;;;5.45;4.68;;;;;;;;;;4926794;29;20020;-61
2022/04/01 05:16:43;;;;;;;6.75;4.68;;;;;;;;;;4929925;29;20083;-61
2022/04/01 05:19:10;;;;;;;5.57;4.53;;;;;;;;;;4926355;29;20914;-62
2022/04/01 05:22:08;;;;;;;6.03;4.10;;;;;;;;;;4926453;29;20126;-62
2022/04/01 05:24:51;;;;;;;5.32;4.70;;;;;;;;;;4929907;29;20396;-61
2022/04/01 05:27:30;;;;;;;5.82;4.68;;;;;;;;;;4928760;29;20128;-62
2022/04/01 05:30:16;;;;;;;5.53;4.57;;;;;;;;;;4929104;29;20138;-63
2022/04/01 05:33:06;;;;;;;5.65;4.22;;;;;;;;;;4931963;29;20091;-62
2022/04/01 05:35:35;;;;;;;5.75;4.57;;;;;;;;;;4932747;29;20028;-62
2022/04/01 05:38:00;;;;;;;7.95;4.45;;;;;;;;;;4935874;29;20506;-63
2022/04/01 05:40:28;;;;;;;6.13;4.60;;;;;;;;;;4933644;29;20031;-62
2022/04/01 05:42:56;;;;;;;6.25;4.55;;;;;;;;;;4933805;29;20027;-63
2022/04/01 05:45:24;;;;;;;6.20;4.80;;;;;;;;;;4932703;29;20035;-61
2022/04/01 05:47:50;;;;;;;6.40;4.63;;;;;;;;;;4934498;29;20356;-61
2022/04/01 05:50:20;;;;;;;4.43;4.03;;;;;;;;;;4932202;29;20099;-62
2022/04/01 05:52:47;;;;;;;6.65;5.00;;;;;;;;;;4933006;29;20026;-61
2022/04/01 05:55:19;;;;;;;7.20;4.95;;;;;;;;;;4932636;29;20817;-61
2022/04/01 05:57:44;;;;;;;8.43;4.60;;;;;;;;;;4933238;29;20034;-62
2022/04/01 06:00:13;;;;;;;4.85;4.35;;;;;;;;;;4933128;29;20032;-62
2022/04/01 06:02:59;;;;;;;6.75;4.55;;;;;;;;;;4933855;29;20472;-62
2022/04/01 06:05:56;;;;;;;5.78;4.18;;;;;;;;;;4932574;29;20062;-63
2022/04/01 06:08:55;;;;;;;7.57;4.25;;;;;;;;;;4930607;29;20391;-62
2022/04/01 06:11:35;;;;;;;7.50;4.32;;;;;;;;;;4930627;29;20144;-61
2022/04/01 06:14:08;;;;;;;7.47;4.47;;;;;;;;;;4930523;29;20122;-61
2022/04/01 06:16:45;;;;;;;6.05;4.57;;;;;;;;;;4945073;28;20058;-61
2022/04/01 06:19:27;;;;;;;8.02;4.95;;;;;;;;;;4930240;29;20475;-62
2022/04/01 06:22:03;;;;;;;6.88;4.63;;;;;;;;;;4932612;29;20030;-62
2022/04/01 06:24:37;;;;;;;6.40;4.72;;;;;;;;;;4931228;29;20128;-62
2022/04/01 06:27:03;;;;;;;7.05;4.82;;;;;;;;;;4932752;29;20031;-62
2022/04/01 06:29:35;;;;;;;6.95;4.80;;;;;;;;;;4946395;28;20042;-60
2022/04/01 06:32:23;;;;;;;6.35;4.85;;;;;;;;;;4930396;29;20065;-61
2022/04/01 06:35:06;;;;;;;5.65;4.60;;;;;;;;;;4931712;29;20510;-61
2022/04/01 06:37:46;;;;;;;6.10;4.68;;;;;;;;;;4935876;29;20041;-61
2022/04/01 06:40:14;;;;;;;6.65;5.03;;;;;;;;;;4932030;29;20039;-61
2022/04/01 06:42:40;;;;;;;6.68;4.95;;;;;;;;;;4935374;29;20105;-63
2022/04/01 06:45:11;;;;;;;7.65;5.18;;;;;;;;;;4931915;29;20024;-60
2022/04/01 06:47:37;;;;;;;6.45;4.95;;;;;;;;;;4932592;29;20111;-61
2022/04/01 06:50:04;;;;;;;5.78;4.53;;;;;;;;;;4933383;29;20052;-60
2022/04/01 06:52:29;;;;;;;6.18;4.57;;;;;;;;;;4949001;28;20042;-61
2022/04/01 06:54:56;;;;;;;6.05;4.68;;;;;;;;;;4933506;29;20134;-63
2022/04/01 06:57:22;;;;;;;7.15;4.57;;;;;;;;;;4932648;29;20209;-60
2022/04/01 06:59:48;;;;;;;6.45;4.93;;;;;;;;;;4932948;29;20035;-62
2022/04/01 07:02:14;;;;;;;5.43;4.35;;;;;;;;;;4933082;29;20502;-63
2022/04/01 07:04:39;;;;;;;8.93;5.07;;;;;;;;;;4932721;29;20032;-60
2022/04/01 07:07:05;;;;;;;8.23;5.35;;;;;;;;;;4934460;29;20391;-61
2022/04/01 07:09:30;;;;;;;6.07;4.57;;;;;;;;;;4934154;29;20039;-62
2022/04/01 07:11:59;;;;;;;6.43;4.72;;;;;;;;;;4934452;29;20023;-64
2022/04/01 07:14:27;;;;;;;6.32;4.40;;;;;;;;;;4935325;29;20039;-62
2022/04/01 07:16:53;;;;;;;6.70;4.60;;;;;;;;;;4933806;29;20032;-61
2022/04/01 07:19:19;;;;;;;6.45;4.75;;;;;;;;;;4932653;29;20035;-62
2022/04/01 07:21:44;;;;;;;6.13;4.60;;;;;;;;;;4931292;29;20142;-61
2022/04/01 07:24:09;;;;;;;7.75;4.95;;;;;;;;;;4932613;29;20047;-62
2022/04/01 07:26:35;;;;;;;8.18;5.07;;;;;;;;;;4932503;29;20395;-62
2022/04/01 07:29:01;;;;;;;6.53;4.15;;;;;;;;;;4931779;29;20031;-63
2022/04/01 07:34:13;;;;;;;8.93;4.22;;;;;;;;;;4931759;29;20038;-60
2022/04/01 07:36:38;;;;;;;7.95;4.40;;;;;;;;;;4934166;29;20028;-59
2022/04/01 07:39:04;;;;;;;5.20;3.90;;;;;;;;;;4931711;29;20372;-61
2022/04/01 07:41:34;;;;;;;6.63;4.93;;;;;;;;;;4937297;29;20028;-63
2022/04/01 07:44:01;;;;;;;6.18;4.15;;;;;;;;;;4931697;29;20434;-59
2022/04/01 07:46:26;;;;;;;4.88;3.63;;;;;;;;;;4930860;29;20039;-63
2022/04/01 07:48:51;;;;;;;7.53;4.05;;;;;;;;;;4931397;29;20042;-65
2022/04/01 07:51:17;;;;;;;6.53;3.92;;;;;;;;;;4931712;29;20031;-60
2022/04/01 07:53:42;;;;;;;6.43;3.85;;;;;;;;;;4929810;29;20031;-60
2022/04/01 07:56:08;;;;;;;9.63;4.15;;;;;;;;;;4929925;29;20039;-61
2022/04/01 07:58:33;;;;;;;5.45;3.80;;;;;;;;;;4931207;29;20122;-60
2022/04/01 08:00:59;;;;;;;6.00;4.00;;;;;;;;;;4934005;29;20032;-62
2022/04/01 08:03:24;;;;;;;5.32;3.97;;;;;;;;;;4932397;29;20044;-61
2022/04/01 08:05:50;;;;;;;5.20;3.97;;;;;;;;;;4930845;29;20119;-61
2022/04/01 08:08:15;;;;;;;7.88;3.70;;;;;;;;;;4928072;29;20028;-65
2022/04/01 08:10:42;;;;;;;4.55;3.47;;;;;;;;;;4932421;29;20469;-60
2022/04/01 08:13:09;;;;;;;6.72;3.95;;;;;;;;;;4932292;29;20102;-60
2022/04/01 08:15:34;;;;;;;5.82;3.70;;;;;;;;;;4932096;29;20037;-61
2022/04/01 08:18:00;;;;;;;6.60;3.90;;;;;;;;;;4942666;28;20036;-62
2022/04/01 08:20:25;;;;;;;5.18;3.40;;;;;;;;;;4930065;29;20098;-61
2022/04/01 08:22:51;;;;;;;5.97;3.90;;;;;;;;;;4932106;29;20064;-60
2022/04/01 08:25:17;;;;;;;5.80;3.50;;;;;;;;;;4946485;28;20086;-63
2022/04/01 08:27:43;;;;;;;5.57;3.78;;;;;;;;;;4949260;28;20106;-60
2022/04/01 08:30:08;;;;;;;6.10;3.72;;;;;;;;;;4929745;29;20032;-61
2022/04/01 08:32:36;;;;;;;5.47;3.75;;;;;;;;;;4932102;29;20031;-64
2022/04/01 08:35:01;;;;;;;5.50;3.67;;;;;;;;;;4932400;29;20027;-63
2022/04/01 08:37:27;;;;;;;5.43;3.45;;;;;;;;;;4932799;29;20114;-62
2022/04/01 08:39:53;;;;;;;5.32;3.55;;;;;;;;;;4933189;29;20028;-61
2022/04/01 08:42:18;;;;;;;4.93;3.17;;;;;;;;;;4930278;29;20070;-61
2022/04/01 08:44:45;;;;;;;7.70;4.18;;;;;;;;;;4928084;29;20051;-61
2022/04/01 08:47:11;;;;;;;6.82;3.45;;;;;;;;;;4932616;29;20439;-62
2022/04/01 08:49:36;;;;;;;3.88;3.28;;;;;;;;;;4930602;29;20051;-61
2022/04/01 08:52:06;;;;;;;4.88;3.53;;;;;;;;;;4931457;29;20083;-62
2022/04/01 08:54:33;;;;;;;7.32;3.88;;;;;;;;;;4930477;29;20058;-59
2022/04/01 08:56:58;;;;;;;5.38;3.90;;;;;;;;;;4930267;29;20055;-63
2022/04/01 08:59:31;;;;;;;5.55;3.72;;;;;;;;;;4931009;29;20380;-61
2022/04/01 09:02:23;;;;;;;4.10;3.50;;;;;;;;;;4929982;29;20054;-63
2022/04/01 09:05:06;;;;;;;5.55;3.47;;;;;;;;;;4930461;29;20076;-60
2022/04/01 09:07:31;;;;;;;5.20;3.60;;;;;;;;;;4931154;29;20031;-60
2022/04/01 09:10:05;;;;;;;5.90;3.85;;;;;;;;;;4928836;29;20056;-61
2022/04/01 09:12:31;;;;;;;5.55;3.67;;;;;;;;;;4931397;29;20427;-61
2022/04/01 09:14:57;;;;;;;4.68;3.50;;;;;;;;;;4931430;29;20032;-59
2022/04/01 09:17:39;;;;;;;6.55;3.65;;;;;;;;;;4931473;29;20105;-60
2022/04/01 09:20:06;;;;;;;5.30;3.63;;;;;;;;;;4927091;29;20034;-61
2022/04/01 09:22:32;;;;;;;4.65;3.45;;;;;;;;;;4948028;28;20031;-61
2022/04/01 09:25:02;;;;;;;10.13;3.55;;;;;;;;;;4933452;29;20031;-60
2022/04/01 09:27:51;;;;;;;5.13;3.40;;;;;;;;;;4928162;29;20042;-63
2022/04/01 09:30:20;;;;;;;6.65;3.70;;;;;;;;;;4929168;29;20079;-61
2022/04/01 09:32:49;;;;;;;4.93;3.38;;;;;;;;;;4929014;29;20057;-59
2022/04/01 09:35:16;;;;;;;4.18;2.95;;;;;;;;;;4932452;29;20028;-64
2022/04/01 09:37:42;;;;;;;5.05;3.58;;;;;;;;;;4934730;29;20543;-63
2022/04/01 09:40:08;;;;;;;5.28;3.40;;;;;;;;;;4933146;29;20024;-61
2022/04/01 09:42:34;;;;;;;4.78;3.45;;;;;;;;;;4930478;29;20515;-62
2022/04/01 09:45:00;;;;;;;4.38;3.28;;;;;;;;;;4931543;28;20428;-61
2022/04/01 09:47:26;;;;;;;5.68;3.20;;;;;;;;;;4932953;29;20031;-60
2022/04/01 09:49:55;;;;;;;5.85;3.58;;;;;;;;;;4932545;29;20035;-60
2022/04/01 09:52:22;;;;;;;5.25;3.50;;;;;;;;;;4932720;29;20028;-61
2022/04/01 09:54:47;;;;;;;3.83;3.00;;;;;;;;;;4930613;29;20086;-62
2022/04/01 09:57:14;;;;;;;8.50;3.33;;;;;;;;;;4929513;29;20027;-63
2022/04/01 09:59:41;;;;;;;5.50;3.17;;;;;;;;;;4931194;29;20472;-60
2022/04/01 10:02:06;;;;;;;5.97;3.03;;;;;;;;;;4934110;29;20027;-59
2022/04/01 10:04:32;;;;;;;6.97;3.45;;;;;;;;;;4928413;29;20090;-61
2022/04/01 10:06:59;;;;;;;4.93;3.50;;;;;;;;;;4930908;29;20511;-62
2022/04/01 10:09:26;;;;;;;4.28;3.03;;;;;;;;;;4936066;29;20055;-62
2022/04/01 10:11:52;;;;;;;4.25;3.30;;;;;;;;;;4933200;29;20086;-62
2022/04/01 10:14:24;;;;;;;4.80;2.80;;;;;;;;;;4932632;29;20028;-62
2022/04/01 10:16:51;;;;;;;6.85;3.00;;;;;;;;;;4931168;29;20419;-64
2022/04/01 10:19:21;;;;;;;3.97;2.92;;;;;;;;;;4929894;29;20110;-62
2022/04/01 10:21:47;;;;;;;3.90;2.70;;;;;;;;;;4931259;29;20051;-61
2022/04/01 10:24:38;;;;;;;3.60;2.92;;;;;;;;;;4933129;29;20032;-62
2022/04/01 10:27:03;;;;;;;4.25;2.80;;;;;;;;;;4933411;29;20420;-61
2022/04/01 10:29:31;;;;;;;3.42;2.70;;;;;;;;;;4951589;28;20031;-61
2022/04/01 10:32:25;;;;;;;3.83;2.85;;;;;;;;;;4933628;29;20078;-61
2022/04/01 10:34:53;;;;;;;5.05;2.78;;;;;;;;;;4933481;29;20101;-61
2022/04/01 10:37:22;;;;;;;3.00;2.60;;;;;;;;;;4937826;29;20020;-63
2022/04/01 10:39:48;;;;;;;3.95;2.40;;;;;;;;;;4936045;29;20032;-59
2022/04/01 10:42:13;;;;;;;3.63;2.85;;;;;;;;;;4937875;29;20042;-62
2022/04/01 10:44:45;;;;;;;3.85;2.92;;;;;;;;;;4936931;29;20175;-62
2022/04/01 10:47:11;;;;;;;4.15;2.30;;;;;;;;;;4935631;29;20036;-62
2022/04/01 10:52:23;;;;;;;3.40;2.80;;;;;;;;;;4935544;29;20213;-65
2022/04/01 10:55:08;;;;;;;2.70;2.13;;;;;;;;;;4934667;29;20031;-60
2022/04/01 10:57:40;;;;;;;4.47;2.60;;;;;;;;;;4933165;29;20075;-60
2022/04/01 11:00:12;;;;;;;3.55;2.65;;;;;;;;;;4930403;29;20032;-66
2022/04/01 11:02:38;;;;;;;3.83;2.90;;;;;;;;;;4930417;29;20032;-61
2022/04/01 11:05:29;;;;;;;3.17;2.80;;;;;;;;;;4933149;29;20035;-61
2022/04/01 11:08:20;;;;;;;3.72;2.50;;;;;;;;;;4935108;29;20027;-60
2022/04/01 11:11:12;;;;;;;3.90;2.72;;;;;;;;;;4933668;29;20432;-61
2022/04/01 11:13:38;;;;;;;10.98;2.90;;;;;;;;;;4934127;29;20020;-61
2022/04/01 11:16:21;;;;;;;3.72;2.65;;;;;;;;;;4932488;29;20028;-61
2022/04/01 11:19:18;;;;;;;4.05;2.90;;;;;;;;;;4930496;29;20031;-60
2022/04/01 11:21:47;;;;;;;2.90;2.30;;;;;;;;;;4929007;29;20071;-60
2022/04/01 11:24:42;;;;;;;7.35;2.80;;;;;;;;;;4949806;28;20046;-62
2022/04/01 11:27:23;;;;;;;4.32;2.45;;;;;;;;;;4931802;29;20086;-62
2022/04/01 11:30:03;;;;;;;2.58;2.35;;;;;;;;;;4933350;29;20114;-62
2022/04/01 11:32:29;;;;;;;3.17;2.50;;;;;;;;;;4929213;29;20456;-62
2022/04/01 11:34:55;;;;;;;3.10;2.35;;;;;;;;;;4932957;29;20058;-61
2022/04/01 11:37:21;;;;;;;3.83;2.67;;;;;;;;;;4929685;29;20035;-60
2022/04/01 11:39:46;;;;;;;2.60;2.40;;;;;;;;;;4935775;29;20028;-61
2022/04/01 11:42:12;;;;;;;2.95;2.45;;;;;;;;;;4932215;29;20035;-60
2022/04/01 11:44:37;;;;;;;3.40;2.10;;;;;;;;;;4939177;29;20066;-62
2022/04/01 11:47:03;;;;;;;4.93;2.58;;;;;;;;;;4934092;29;20031;-61
2022/04/01 11:49:29;;;;;;;3.55;2.42;;;;;;;;;;4936030;29;20373;-60
2022/04/01 11:51:55;;;;;;;3.58;2.08;;;;;;;;;;4934903;29;20032;-62
2022/04/01 11:54:21;;;;;;;3.83;2.42;;;;;;;;;;4932148;29;20104;-60
2022/04/01 11:56:50;;;;;;;2.95;2.47;;;;;;;;;;4934701;29;20423;-62
2022/04/01 11:59:16;;;;;;;3.50;2.00;;;;;;;;;;4934796;29;20031;-59
2022/04/01 12:01:56;;;;;;;2.65;1.98;;;;;;;;;;4933436;29;20110;-71
2022/04/01 12:04:38;;;;;;;2.10;1.70;;;;;;;;;;4938184;29;20451;-63
2022/04/01 12:09:58;;;;;;;2.70;1.88;;;;;;;;;;4932548;29;20038;-61
2022/04/01 12:12:25;;;;;;;2.05;1.85;;;;;;;;;;4933887;28;20035;-61
2022/04/01 12:14:50;;;;;;;1.75;1.65;;;;;;;;;;4934141;29;20046;-61
2022/04/01 12:17:15;;;;;;;6.65;2.00;;;;;;;;;;4932842;29;20020;-59
2022/04/01 12:19:41;;;;;;;2.10;1.80;;;;;;;;;;4953890;28;20031;-62
2022/04/01 12:22:08;;;;;;;2.40;1.90;;;;;;;;;;4932852;29;20038;-61
2022/04/01 12:24:35;;;;;;;3.33;2.30;;;;;;;;;;4931502;29;20028;-66
2022/04/01 12:27:03;;;;;;;2.75;2.15;;;;;;;;;;4933541;29;20464;-60
2022/04/01 12:29:29;;;;;;;2.50;2.10;;;;;;;;;;4937639;29;20031;-58
2022/04/01 12:32:02;;;;;;;2.10;1.90;;;;;;;;;;4933918;29;20027;-62
2022/04/01 12:34:28;;;;;;;2.17;1.98;;;;;;;;;;4930901;29;20027;-60
2022/04/01 12:37:02;;;;;;;2.55;2.00;;;;;;;;;;4953490;28;20036;-59
2022/04/01 12:39:32;;;;;;;2.72;2.20;;;;;;;;;;4933409;29;20036;-60
2022/04/01 12:42:00;;;;;;;3.20;2.35;;;;;;;;;;4931725;29;20024;-61
2022/04/01 12:44:29;;;;;;;6.85;2.95;;;;;;;;;;4932529;29;20035;-60
2022/04/01 12:46:57;;;;;;;3.03;2.47;;;;;;;;;;4936122;29;20098;-62
2022/04/01 12:49:23;;;;;;;3.45;2.70;;;;;;;;;;4933205;29;20027;-61
2022/04/01 12:51:58;;;;;;;7.82;2.67;;;;;;;;;;4933909;29;20028;-62
2022/04/01 12:54:39;;;;;;;4.20;2.65;;;;;;;;;;4932370;29;20027;-61
2022/04/01 12:57:10;;;;;;;4.30;2.95;;;;;;;;;;4925739;29;20118;-59
2022/04/01 12:59:41;;;;;;;6.13;3.38;;;;;;;;;;4932970;29;20035;-60
2022/04/01 13:02:30;;;;;;;5.35;2.78;;;;;;;;;;4933789;29;20110;-63
2022/04/01 13:04:59;;;;;;;4.10;2.67;;;;;;;;;;4933545;29;20357;-59
2022/04/01 13:07:33;;;;;;;3.05;2.70;;;;;;;;;;4913484;29;20416;-61
2022/04/01 13:10:07;;;;;;;4.55;3.42;;;;;;;;;;4911604;29;20064;-62
2022/04/01 13:12:34;;;;;;;3.58;2.92;;;;;;;;;;4910319;29;20147;-60
2022/04/01 13:15:06;;;;;;;4.85;2.90;;;;;;;;;;4914591;29;20028;-59
2022/04/01 13:17:43;;;;;;;4.30;3.30;;;;;;;;;;4911272;29;20039;-57
2022/04/01 13:20:12;;;;;;;3.55;3.03;;;;;;;;;;4913321;29;20036;-60
2022/04/01 13:22:39;;;;;;;4.18;2.85;;;;;;;;;;4911637;29;20040;-60
2022/04/01 13:25:06;;;;;;;4.28;3.30;;;;;;;;;;4911586;29;20474;-66
2022/04/01 13:27:31;;;;;;;3.88;2.97;;;;;;;;;;4910651;29;20045;-59
2022/04/01 13:29:58;;;;;;;4.40;3.17;;;;;;;;;;4913992;29;20076;-59
2022/04/01 13:32:25;;;;;;;3.58;3.17;;;;;;;;;;4913836;29;20024;-70
2022/04/01 13:34:51;;;;;;;4.03;3.30;;;;;;;;;;4913622;29;20095;-61
2022/04/01 13:37:18;;;;;;;4.00;2.95;;;;;;;;;;4912703;29;20028;-62
2022/04/01 13:39:43;;;;;;;3.53;2.55;;;;;;;;;;4906595;29;20044;-61
2022/04/01 13:42:12;;;;;;;4.03;2.53;;;;;;;;;;4915004;29;20043;-61
2022/04/01 13:44:38;;;;;;;4.35;2.60;;;;;;;;;;4911665;29;20032;-62
2022/04/01 13:47:05;;;;;;;3.17;2.75;;;;;;;;;;4911213;29;20117;-59
2022/04/01 13:49:31;;;;;;;3.20;2.72;;;;;;;;;;4912023;29;20116;-59
2022/04/01 13:51:57;;;;;;;3.67;3.22;;;;;;;;;;4934001;29;20035;-60
2022/04/01 13:54:23;;;;;;;4.22;2.72;;;;;;;;;;4913342;29;20028;-61
2022/04/01 13:56:50;;;;;;;3.63;2.67;;;;;;;;;;4913589;29;20092;-61
2022/04/01 13:59:17;;;;;;;3.08;2.70;;;;;;;;;;4917854;29;20032;-63
2022/04/01 14:01:42;;;;;;;5.97;2.78;;;;;;;;;;4916637;29;20039;-60
2022/04/01 14:04:07;;;;;;;4.13;2.35;;;;;;;;;;4914617;29;20032;-61
2022/04/01 14:06:34;;;;;;;2.60;2.40;;;;;;;;;;4917639;29;20031;-61
2022/04/01 14:09:02;;;;;;;3.40;2.60;;;;;;;;;;4915613;29;20036;-63
2022/04/01 14:11:28;;;;;;;3.08;2.75;;;;;;;;;;4916004;29;20036;-59
2022/04/01 14:13:53;;;;;;;4.97;2.65;;;;;;;;;;4913681;29;20032;-61
2022/04/01 14:16:19;;;;;;;3.20;2.60;;;;;;;;;;4916046;29;20036;-61
2022/04/01 14:18:45;;;;;;;4.95;3.33;;;;;;;;;;4911822;29;20050;-60
2022/04/01 14:21:10;;;;;;;3.88;2.45;;;;;;;;;;4914918;29;20071;-62
2022/04/01 14:23:36;;;;;;;6.00;3.67;;;;;;;;;;4912857;29;20036;-61
2022/04/01 14:26:06;;;;;;;5.97;3.88;;;;;;;;;;4940276;29;20031;-61
2022/04/01 14:28:33;;;;;;;10.63;5.28;;;;;;;;;;4913097;29;20412;-64
2022/04/01 14:31:00;;;;;;;5.15;2.80;;;;;;;;;;4914404;29;20047;-59
2022/04/01 14:33:26;;;;;;;3.67;2.80;;;;;;;;;;4909175;29;20115;-61
2022/04/01 14:35:51;;;;;;;3.47;2.95;;;;;;;;;;4918060;29;20458;-61
2022/04/01 14:38:17;;;;;;;3.15;2.78;;;;;;;;;;4917137;29;20067;-61
2022/04/01 14:40:43;;;;;;;3.05;2.50;;;;;;;;;;4905533;29;20063;-60
2022/04/01 14:43:08;;;;;;;4.00;3.10;;;;;;;;;;4915881;29;20070;-61
2022/04/01 14:45:36;;;;;;;3.70;2.75;;;;;;;;;;4917625;29;20028;-60
2022/04/01 14:48:03;;;;;;;2.80;2.50;;;;;;;;;;4916870;29;20391;-61
2022/04/01 14:50:29;;;;;;;2.40;2.20;;;;;;;;;;4914821;29;20429;-60
2022/04/01 14:52:54;;;;;;;3.05;2.53;;;;;;;;;;4913250;29;20024;-60
2022/04/01 14:55:20;;;;;;;4.10;2.80;;;;;;;;;;4913292;29;20098;-59
2022/04/01 14:57:46;;;;;;;4.05;3.10;;;;;;;;;;4917373;29;20068;-59
2022/04/01 15:00:12;;;;;;;3.88;2.85;;;;;;;;;;4916994;29;20060;-61
2022/04/01 15:02:38;;;;;;;3.72;2.90;;;;;;;;;;4914707;29;20041;-62
2022/04/01 15:05:05;;;;;;;3.22;2.92;;;;;;;;;;4917076;29;20034;-70
2022/04/01 15:07:31;;;;;;;4.30;2.92;;;;;;;;;;4930571;29;20122;-63
2022/04/01 15:09:56;;;;;;;3.47;3.00;;;;;;;;;;4914115;29;20036;-60